sensor_id;sensor_type;location;lat;lon;timestamp;temperature;humidity
11963;DHT22;62678;52.130;5.584;2023-04-03T00:01:45;3.80;99.90
11963;DHT22;62678;52.130;5.584;2023-04-03T00:04:12;3.80;99.90
11963;DHT22;62678;52.130;5.584;2023-04-03T00:06:40;3.80;99.90
11963;DHT22;62678;52.130;5.584;2023-04-03T00:09:07;3.70;99.90
11963;DHT22;62678;52.130;5.584;2023-04-03T00:11:33;3.70;99.90
11963;DHT22;62678;52.130;5.584;2023-04-03T00:14:00;3.60;99.90
11963;DHT22;62678;52.130;5.584;2023-04-03T00:16:27;3.70;99.90
11963;DHT22;62678;52.130;5.584;2023-04-03T00:18:54;3.60;99.90
11963;DHT22;62678;52.130;5.584;2023-04-03T00:21:21;3.60;99.90
11963;DHT22;62678;52.130;5.584;2023-04-03T00:23:49;3.50;99.90
11963;DHT22;62678;52.130;5.584;2023-04-03T00:26:16;3.50;99.90
11963;DHT22;62678;52.130;5.584;2023-04-03T00:28:43;3.50;99.90
11963;DHT22;62678;52.130;5.584;2023-04-03T00:31:10;3.50;99.90
11963;DHT22;62678;52.130;5.584;2023-04-03T00:33:37;3.50;99.90
11963;DHT22;62678;52.130;5.584;2023-04-03T00:36:07;3.50;99.90
11963;DHT22;62678;52.130;5.584;2023-04-03T00:38:35;3.50;99.90
11963;DHT22;62678;52.130;5.584;2023-04-03T00:41:03;3.40;99.90
11963;DHT22;62678;52.130;5.584;2023-04-03T00:43:30;3.40;99.90
11963;DHT22;62678;52.130;5.584;2023-04-03T00:45:58;3.40;99.90
11963;DHT22;62678;52.130;5.584;2023-04-03T00:48:29;3.40;99.90
11963;DHT22;62678;52.130;5.584;2023-04-03T00:50:57;3.40;99.90
11963;DHT22;62678;52.130;5.584;2023-04-03T00:53:28;3.30;99.90
11963;DHT22;62678;52.130;5.584;2023-04-03T00:55:58;3.30;99.90
11963;DHT22;62678;52.130;5.584;2023-04-03T00:58:33;3.40;99.90
11963;DHT22;62678;52.130;5.584;2023-04-03T01:01:06;3.40;99.90
11963;DHT22;62678;52.130;5.584;2023-04-03T01:03:34;3.30;99.90
11963;DHT22;62678;52.130;5.584;2023-04-03T01:06:02;3.40;99.90
11963;DHT22;62678;52.130;5.584;2023-04-03T01:08:29;3.40;99.90
11963;DHT22;62678;52.130;5.584;2023-04-03T01:10:56;3.30;99.90
11963;DHT22;62678;52.130;5.584;2023-04-03T01:13:28;3.30;99.90
11963;DHT22;62678;52.130;5.584;2023-04-03T01:15:55;3.20;99.90
11963;DHT22;62678;52.130;5.584;2023-04-03T01:18:24;3.20;99.90
11963;DHT22;62678;52.130;5.584;2023-04-03T01:21:23;3.20;99.90
11963;DHT22;62678;52.130;5.584;2023-04-03T01:24:16;3.20;99.90
11963;DHT22;62678;52.130;5.584;2023-04-03T01:26:48;3.20;99.90
11963;DHT22;62678;52.130;5.584;2023-04-03T01:29:16;3.10;99.90
11963;DHT22;62678;52.130;5.584;2023-04-03T01:31:50;3.10;99.90
11963;DHT22;62678;52.130;5.584;2023-04-03T01:34:18;3.10;99.90
11963;DHT22;62678;52.130;5.584;2023-04-03T01:36:45;3.10;99.90
11963;DHT22;62678;52.130;5.584;2023-04-03T01:39:12;3.00;99.90
11963;DHT22;62678;52.130;5.584;2023-04-03T01:41:39;3.00;99.90
11963;DHT22;62678;52.130;5.584;2023-04-03T01:44:06;3.00;99.90
11963;DHT22;62678;52.130;5.584;2023-04-03T01:46:33;3.00;99.90
11963;DHT22;62678;52.130;5.584;2023-04-03T01:49:02;3.00;99.90
11963;DHT22;62678;52.130;5.584;2023-04-03T01:51:29;3.00;99.90
11963;DHT22;62678;52.130;5.584;2023-04-03T01:53:56;2.90;99.90
11963;DHT22;62678;52.130;5.584;2023-04-03T01:56:22;2.90;99.90
11963;DHT22;62678;52.130;5.584;2023-04-03T01:58:50;2.80;99.90
11963;DHT22;62678;52.130;5.584;2023-04-03T02:01:17;2.90;99.90
11963;DHT22;62678;52.130;5.584;2023-04-03T02:03:44;2.90;99.90
11963;DHT22;62678;52.130;5.584;2023-04-03T02:06:12;2.80;99.90
11963;DHT22;62678;52.130;5.584;2023-04-03T02:08:39;2.80;99.90
11963;DHT22;62678;52.130;5.584;2023-04-03T02:11:07;2.80;99.90
11963;DHT22;62678;52.130;5.584;2023-04-03T02:13:34;2.80;99.90
11963;DHT22;62678;52.130;5.584;2023-04-03T02:16:06;2.80;99.90
11963;DHT22;62678;52.130;5.584;2023-04-03T02:18:33;2.80;99.90
11963;DHT22;62678;52.130;5.584;2023-04-03T02:21:00;2.80;99.90
11963;DHT22;62678;52.130;5.584;2023-04-03T02:23:28;2.70;99.90
11963;DHT22;62678;52.130;5.584;2023-04-03T02:26:03;2.80;99.90
11963;DHT22;62678;52.130;5.584;2023-04-03T02:28:30;2.70;99.90
11963;DHT22;62678;52.130;5.584;2023-04-03T02:30:57;2.70;99.90
11963;DHT22;62678;52.130;5.584;2023-04-03T02:33:24;2.70;99.90
11963;DHT22;62678;52.130;5.584;2023-04-03T02:35:53;2.70;99.90
11963;DHT22;62678;52.130;5.584;2023-04-03T02:38:20;2.70;99.90
11963;DHT22;62678;52.130;5.584;2023-04-03T02:40:48;2.70;99.90
11963;DHT22;62678;52.130;5.584;2023-04-03T02:43:15;2.70;99.90
11963;DHT22;62678;52.130;5.584;2023-04-03T02:45:42;2.70;99.90
11963;DHT22;62678;52.130;5.584;2023-04-03T02:48:09;2.70;99.90
11963;DHT22;62678;52.130;5.584;2023-04-03T02:50:36;2.70;99.90
11963;DHT22;62678;52.130;5.584;2023-04-03T02:53:02;2.70;99.90
11963;DHT22;62678;52.130;5.584;2023-04-03T02:55:30;2.70;99.90
11963;DHT22;62678;52.130;5.584;2023-04-03T02:57:58;2.50;99.90
11963;DHT22;62678;52.130;5.584;2023-04-03T03:00:25;2.50;99.90
11963;DHT22;62678;52.130;5.584;2023-04-03T03:02:52;2.50;99.90
11963;DHT22;62678;52.130;5.584;2023-04-03T03:05:19;2.60;99.90
11963;DHT22;62678;52.130;5.584;2023-04-03T03:07:46;2.60;99.90
11963;DHT22;62678;52.130;5.584;2023-04-03T03:10:13;2.60;99.90
11963;DHT22;62678;52.130;5.584;2023-04-03T03:12:40;2.50;99.90
11963;DHT22;62678;52.130;5.584;2023-04-03T03:15:12;2.50;99.90
11963;DHT22;62678;52.130;5.584;2023-04-03T03:17:39;2.50;99.90
11963;DHT22;62678;52.130;5.584;2023-04-03T03:20:07;2.40;99.90
11963;DHT22;62678;52.130;5.584;2023-04-03T03:22:34;2.50;99.90
11963;DHT22;62678;52.130;5.584;2023-04-03T03:25:01;2.40;99.90
11963;DHT22;62678;52.130;5.584;2023-04-03T03:27:28;2.50;99.90
11963;DHT22;62678;52.130;5.584;2023-04-03T03:29:55;2.50;99.90
11963;DHT22;62678;52.130;5.584;2023-04-03T03:32:24;2.40;99.90
11963;DHT22;62678;52.130;5.584;2023-04-03T03:34:50;2.40;99.90
11963;DHT22;62678;52.130;5.584;2023-04-03T03:37:17;2.40;99.90
11963;DHT22;62678;52.130;5.584;2023-04-03T03:39:44;2.40;99.90
11963;DHT22;62678;52.130;5.584;2023-04-03T03:42:11;2.40;99.90
11963;DHT22;62678;52.130;5.584;2023-04-03T03:44:38;2.40;99.90
11963;DHT22;62678;52.130;5.584;2023-04-03T03:47:05;2.40;99.90
11963;DHT22;62678;52.130;5.584;2023-04-03T03:49:33;2.30;99.90
11963;DHT22;62678;52.130;5.584;2023-04-03T03:52:00;2.30;99.90
11963;DHT22;62678;52.130;5.584;2023-04-03T03:54:27;2.30;99.90
11963;DHT22;62678;52.130;5.584;2023-04-03T03:56:54;2.30;99.90
11963;DHT22;62678;52.130;5.584;2023-04-03T03:59:21;2.30;99.90
11963;DHT22;62678;52.130;5.584;2023-04-03T04:01:48;2.30;99.90
11963;DHT22;62678;52.130;5.584;2023-04-03T04:04:15;2.30;99.90
11963;DHT22;62678;52.130;5.584;2023-04-03T04:06:43;2.20;99.90
11963;DHT22;62678;52.130;5.584;2023-04-03T04:09:10;2.20;99.90
11963;DHT22;62678;52.130;5.584;2023-04-03T04:11:37;2.20;99.90
11963;DHT22;62678;52.130;5.584;2023-04-03T04:14:05;2.20;99.90
11963;DHT22;62678;52.130;5.584;2023-04-03T04:16:32;2.20;99.90
11963;DHT22;62678;52.130;5.584;2023-04-03T04:18:59;2.20;99.90
11963;DHT22;62678;52.130;5.584;2023-04-03T04:21:26;2.10;99.90
11963;DHT22;62678;52.130;5.584;2023-04-03T04:23:54;2.10;99.90
11963;DHT22;62678;52.130;5.584;2023-04-03T04:26:21;2.10;99.90
11963;DHT22;62678;52.130;5.584;2023-04-03T04:28:48;2.00;99.90
11963;DHT22;62678;52.130;5.584;2023-04-03T04:31:15;2.00;99.90
11963;DHT22;62678;52.130;5.584;2023-04-03T04:33:42;2.00;99.90
11963;DHT22;62678;52.130;5.584;2023-04-03T04:36:09;2.00;99.90
11963;DHT22;62678;52.130;5.584;2023-04-03T04:38:35;1.90;99.90
11963;DHT22;62678;52.130;5.584;2023-04-03T04:41:05;1.90;99.90
11963;DHT22;62678;52.130;5.584;2023-04-03T04:43:32;1.90;99.90
11963;DHT22;62678;52.130;5.584;2023-04-03T04:46:03;1.90;99.90
11963;DHT22;62678;52.130;5.584;2023-04-03T04:48:30;1.90;99.90
11963;DHT22;62678;52.130;5.584;2023-04-03T04:50:57;1.90;99.90
11963;DHT22;62678;52.130;5.584;2023-04-03T04:53:24;1.90;99.90
11963;DHT22;62678;52.130;5.584;2023-04-03T04:55:51;1.90;99.90
11963;DHT22;62678;52.130;5.584;2023-04-03T04:58:19;1.90;99.90
11963;DHT22;62678;52.130;5.584;2023-04-03T05:00:46;1.80;99.90
11963;DHT22;62678;52.130;5.584;2023-04-03T05:03:13;1.80;99.90
11963;DHT22;62678;52.130;5.584;2023-04-03T05:05:40;1.80;99.90
11963;DHT22;62678;52.130;5.584;2023-04-03T05:08:07;1.80;99.90
11963;DHT22;62678;52.130;5.584;2023-04-03T05:10:34;1.80;99.90
11963;DHT22;62678;52.130;5.584;2023-04-03T05:13:01;1.70;99.90
11963;DHT22;62678;52.130;5.584;2023-04-03T05:15:29;1.80;99.90
11963;DHT22;62678;52.130;5.584;2023-04-03T05:17:56;1.70;99.90
11963;DHT22;62678;52.130;5.584;2023-04-03T05:20:23;1.70;99.90
11963;DHT22;62678;52.130;5.584;2023-04-03T05:22:50;1.70;99.90
11963;DHT22;62678;52.130;5.584;2023-04-03T05:25:17;1.70;99.90
11963;DHT22;62678;52.130;5.584;2023-04-03T05:27:44;1.70;99.90
11963;DHT22;62678;52.130;5.584;2023-04-03T05:30:12;1.70;99.90
11963;DHT22;62678;52.130;5.584;2023-04-03T05:32:40;1.70;99.90
11963;DHT22;62678;52.130;5.584;2023-04-03T05:35:08;1.70;99.90
11963;DHT22;62678;52.130;5.584;2023-04-03T05:37:35;1.70;99.90
11963;DHT22;62678;52.130;5.584;2023-04-03T05:40:04;1.70;99.90
11963;DHT22;62678;52.130;5.584;2023-04-03T05:42:31;1.70;99.90
11963;DHT22;62678;52.130;5.584;2023-04-03T05:44:58;1.70;99.90
11963;DHT22;62678;52.130;5.584;2023-04-03T05:47:25;1.70;99.90
11963;DHT22;62678;52.130;5.584;2023-04-03T05:49:53;1.80;99.90
11963;DHT22;62678;52.130;5.584;2023-04-03T05:52:23;1.80;99.90
11963;DHT22;62678;52.130;5.584;2023-04-03T05:54:52;1.80;99.90
11963;DHT22;62678;52.130;5.584;2023-04-03T05:57:19;1.70;99.90
11963;DHT22;62678;52.130;5.584;2023-04-03T05:59:46;1.90;99.90
11963;DHT22;62678;52.130;5.584;2023-04-03T06:02:16;1.80;99.90
11963;DHT22;62678;52.130;5.584;2023-04-03T06:04:43;1.90;99.90
11963;DHT22;62678;52.130;5.584;2023-04-03T06:07:13;1.90;99.90
11963;DHT22;62678;52.130;5.584;2023-04-03T06:09:41;2.00;99.90
11963;DHT22;62678;52.130;5.584;2023-04-03T06:12:08;2.00;99.90
11963;DHT22;62678;52.130;5.584;2023-04-03T06:14:36;2.10;99.90
11963;DHT22;62678;52.130;5.584;2023-04-03T06:17:03;2.10;99.90
11963;DHT22;62678;52.130;5.584;2023-04-03T06:19:30;2.20;99.90
11963;DHT22;62678;52.130;5.584;2023-04-03T06:21:57;2.20;99.90
11963;DHT22;62678;52.130;5.584;2023-04-03T06:24:26;2.20;99.90
11963;DHT22;62678;52.130;5.584;2023-04-03T06:26:53;2.30;99.90
11963;DHT22;62678;52.130;5.584;2023-04-03T06:29:20;2.40;99.90
11963;DHT22;62678;52.130;5.584;2023-04-03T06:31:47;2.40;99.90
11963;DHT22;62678;52.130;5.584;2023-04-03T06:34:14;2.50;99.90
11963;DHT22;62678;52.130;5.584;2023-04-03T06:36:42;2.50;99.90
11963;DHT22;62678;52.130;5.584;2023-04-03T06:39:12;2.60;99.90
11963;DHT22;62678;52.130;5.584;2023-04-03T06:41:41;2.70;99.90
11963;DHT22;62678;52.130;5.584;2023-04-03T06:44:08;2.70;99.90
11963;DHT22;62678;52.130;5.584;2023-04-03T06:46:37;2.80;99.90
11963;DHT22;62678;52.130;5.584;2023-04-03T06:49:04;2.80;99.90
11963;DHT22;62678;52.130;5.584;2023-04-03T06:51:33;2.90;99.90
11963;DHT22;62678;52.130;5.584;2023-04-03T06:54:05;2.90;99.90
11963;DHT22;62678;52.130;5.584;2023-04-03T06:56:32;2.80;99.90
11963;DHT22;62678;52.130;5.584;2023-04-03T06:59:01;2.90;99.90
11963;DHT22;62678;52.130;5.584;2023-04-03T07:01:29;3.00;99.90
11963;DHT22;62678;52.130;5.584;2023-04-03T07:03:57;3.10;99.90
11963;DHT22;62678;52.130;5.584;2023-04-03T07:06:25;3.20;99.90
11963;DHT22;62678;52.130;5.584;2023-04-03T07:08:53;3.10;99.90
11963;DHT22;62678;52.130;5.584;2023-04-03T07:11:20;3.20;99.90
11963;DHT22;62678;52.130;5.584;2023-04-03T07:13:48;3.30;99.90
11963;DHT22;62678;52.130;5.584;2023-04-03T07:16:16;3.30;99.90
11963;DHT22;62678;52.130;5.584;2023-04-03T07:18:43;3.50;99.90
11963;DHT22;62678;52.130;5.584;2023-04-03T07:21:11;3.50;99.90
11963;DHT22;62678;52.130;5.584;2023-04-03T07:23:39;3.60;99.90
11963;DHT22;62678;52.130;5.584;2023-04-03T07:26:06;3.70;99.90
11963;DHT22;62678;52.130;5.584;2023-04-03T07:28:34;3.60;99.90
11963;DHT22;62678;52.130;5.584;2023-04-03T07:31:03;3.70;99.90
11963;DHT22;62678;52.130;5.584;2023-04-03T07:33:33;3.70;99.90
11963;DHT22;62678;52.130;5.584;2023-04-03T07:36:00;3.90;99.90
11963;DHT22;62678;52.130;5.584;2023-04-03T07:38:28;3.90;99.90
11963;DHT22;62678;52.130;5.584;2023-04-03T07:40:55;3.80;99.90
11963;DHT22;62678;52.130;5.584;2023-04-03T07:43:22;3.90;99.90
11963;DHT22;62678;52.130;5.584;2023-04-03T07:45:52;4.00;99.90
11963;DHT22;62678;52.130;5.584;2023-04-03T07:48:21;4.10;99.90
11963;DHT22;62678;52.130;5.584;2023-04-03T07:50:50;4.20;99.90
11963;DHT22;62678;52.130;5.584;2023-04-03T07:53:17;4.30;99.90
11963;DHT22;62678;52.130;5.584;2023-04-03T07:55:47;4.30;99.90
11963;DHT22;62678;52.130;5.584;2023-04-03T07:58:16;4.50;99.90
11963;DHT22;62678;52.130;5.584;2023-04-03T08:00:44;4.70;99.90
11963;DHT22;62678;52.130;5.584;2023-04-03T08:03:11;4.70;99.90
11963;DHT22;62678;52.130;5.584;2023-04-03T08:05:40;4.70;99.90
11963;DHT22;62678;52.130;5.584;2023-04-03T08:08:10;4.80;99.90
11963;DHT22;62678;52.130;5.584;2023-04-03T08:10:37;4.90;99.90
11963;DHT22;62678;52.130;5.584;2023-04-03T08:13:05;5.10;99.90
11963;DHT22;62678;52.130;5.584;2023-04-03T08:15:32;4.90;99.90
11963;DHT22;62678;52.130;5.584;2023-04-03T08:17:59;5.10;99.90
11963;DHT22;62678;52.130;5.584;2023-04-03T08:20:27;5.10;99.90
11963;DHT22;62678;52.130;5.584;2023-04-03T08:22:55;5.20;99.90
11963;DHT22;62678;52.130;5.584;2023-04-03T08:25:24;5.30;99.90
11963;DHT22;62678;52.130;5.584;2023-04-03T08:27:51;5.40;99.90
11963;DHT22;62678;52.130;5.584;2023-04-03T08:30:19;5.50;99.90
11963;DHT22;62678;52.130;5.584;2023-04-03T08:32:46;5.60;99.90
11963;DHT22;62678;52.130;5.584;2023-04-03T08:35:13;5.70;99.90
11963;DHT22;62678;52.130;5.584;2023-04-03T08:37:40;5.80;99.90
11963;DHT22;62678;52.130;5.584;2023-04-03T08:40:13;5.80;99.90
11963;DHT22;62678;52.130;5.584;2023-04-03T08:42:52;5.90;99.90
11963;DHT22;62678;52.130;5.584;2023-04-03T08:45:27;6.00;99.90
11963;DHT22;62678;52.130;5.584;2023-04-03T08:48:02;6.00;99.90
11963;DHT22;62678;52.130;5.584;2023-04-03T08:50:35;6.10;99.90
11963;DHT22;62678;52.130;5.584;2023-04-03T08:53:06;6.20;99.90
11963;DHT22;62678;52.130;5.584;2023-04-03T08:55:41;6.20;99.90
11963;DHT22;62678;52.130;5.584;2023-04-03T08:58:15;6.30;99.90
11963;DHT22;62678;52.130;5.584;2023-04-03T09:00:46;6.40;99.90
11963;DHT22;62678;52.130;5.584;2023-04-03T09:03:15;6.40;99.90
11963;DHT22;62678;52.130;5.584;2023-04-03T09:05:46;6.50;99.90
11963;DHT22;62678;52.130;5.584;2023-04-03T09:08:22;6.60;99.90
11963;DHT22;62678;52.130;5.584;2023-04-03T09:11:05;6.60;99.90
11963;DHT22;62678;52.130;5.584;2023-04-03T09:13:41;6.70;99.90
11963;DHT22;62678;52.130;5.584;2023-04-03T09:16:18;6.70;99.90
11963;DHT22;62678;52.130;5.584;2023-04-03T09:18:51;6.70;99.90
11963;DHT22;62678;52.130;5.584;2023-04-03T09:21:24;6.90;99.90
11963;DHT22;62678;52.130;5.584;2023-04-03T09:23:53;6.90;99.90
11963;DHT22;62678;52.130;5.584;2023-04-03T09:26:25;7.00;99.90
11963;DHT22;62678;52.130;5.584;2023-04-03T09:28:57;7.10;99.90
11963;DHT22;62678;52.130;5.584;2023-04-03T09:31:27;7.00;99.90
11963;DHT22;62678;52.130;5.584;2023-04-03T09:34:01;7.00;99.90
11963;DHT22;62678;52.130;5.584;2023-04-03T09:36:42;7.10;99.90
11963;DHT22;62678;52.130;5.584;2023-04-03T09:39:13;7.20;99.90
11963;DHT22;62678;52.130;5.584;2023-04-03T09:41:42;7.40;99.90
11963;DHT22;62678;52.130;5.584;2023-04-03T09:44:24;7.40;99.90
11963;DHT22;62678;52.130;5.584;2023-04-03T09:46:51;7.50;99.90
11963;DHT22;62678;52.130;5.584;2023-04-03T09:49:19;7.50;99.90
11963;DHT22;62678;52.130;5.584;2023-04-03T09:51:46;7.60;99.90
11963;DHT22;62678;52.130;5.584;2023-04-03T09:54:30;7.80;99.90
11963;DHT22;62678;52.130;5.584;2023-04-03T09:57:01;7.80;99.90
11963;DHT22;62678;52.130;5.584;2023-04-03T09:59:32;7.60;99.90
11963;DHT22;62678;52.130;5.584;2023-04-03T10:02:02;7.80;99.90
11963;DHT22;62678;52.130;5.584;2023-04-03T10:04:40;7.90;99.90
11963;DHT22;62678;52.130;5.584;2023-04-03T10:07:32;8.00;99.90
11963;DHT22;62678;52.130;5.584;2023-04-03T10:10:02;8.20;99.90
11963;DHT22;62678;52.130;5.584;2023-04-03T10:12:29;8.30;99.90
11963;DHT22;62678;52.130;5.584;2023-04-03T10:15:00;8.10;99.90
11963;DHT22;62678;52.130;5.584;2023-04-03T10:17:36;8.20;99.90
11963;DHT22;62678;52.130;5.584;2023-04-03T10:20:09;8.30;99.90
11963;DHT22;62678;52.130;5.584;2023-04-03T10:22:48;8.00;99.90
11963;DHT22;62678;52.130;5.584;2023-04-03T10:25:21;7.90;99.90
11963;DHT22;62678;52.130;5.584;2023-04-03T10:27:56;8.10;99.90
11963;DHT22;62678;52.130;5.584;2023-04-03T10:30:36;8.30;99.90
11963;DHT22;62678;52.130;5.584;2023-04-03T10:33:20;8.40;99.90
11963;DHT22;62678;52.130;5.584;2023-04-03T10:36:00;8.60;99.90
11963;DHT22;62678;52.130;5.584;2023-04-03T10:38:34;8.70;99.90
11963;DHT22;62678;52.130;5.584;2023-04-03T10:41:09;8.80;99.90
11963;DHT22;62678;52.130;5.584;2023-04-03T10:43:43;8.80;99.90
11963;DHT22;62678;52.130;5.584;2023-04-03T10:46:22;8.80;99.90
11963;DHT22;62678;52.130;5.584;2023-04-03T10:49:02;8.80;99.90
11963;DHT22;62678;52.130;5.584;2023-04-03T10:51:37;8.90;99.90
11963;DHT22;62678;52.130;5.584;2023-04-03T10:54:11;9.00;99.90
11963;DHT22;62678;52.130;5.584;2023-04-03T10:56:41;8.90;99.90
11963;DHT22;62678;52.130;5.584;2023-04-03T10:59:21;9.10;99.90
11963;DHT22;62678;52.130;5.584;2023-04-03T11:01:53;9.10;99.90
11963;DHT22;62678;52.130;5.584;2023-04-03T11:04:24;9.10;99.90
11963;DHT22;62678;52.130;5.584;2023-04-03T11:06:58;9.30;99.90
11963;DHT22;62678;52.130;5.584;2023-04-03T11:09:28;9.30;99.90
11963;DHT22;62678;52.130;5.584;2023-04-03T11:12:01;9.30;99.90
11963;DHT22;62678;52.130;5.584;2023-04-03T11:14:31;9.50;99.90
11963;DHT22;62678;52.130;5.584;2023-04-03T11:17:08;9.40;99.90
11963;DHT22;62678;52.130;5.584;2023-04-03T11:19:42;9.20;99.90
11963;DHT22;62678;52.130;5.584;2023-04-03T11:22:18;9.20;99.90
11963;DHT22;62678;52.130;5.584;2023-04-03T11:24:56;9.30;99.90
11963;DHT22;62678;52.130;5.584;2023-04-03T11:27:25;9.40;99.90
11963;DHT22;62678;52.130;5.584;2023-04-03T11:29:57;9.50;99.90
11963;DHT22;62678;52.130;5.584;2023-04-03T11:32:44;9.50;99.90
11963;DHT22;62678;52.130;5.584;2023-04-03T11:35:17;9.50;99.90
11963;DHT22;62678;52.130;5.584;2023-04-03T11:37:47;9.60;99.90
11963;DHT22;62678;52.130;5.584;2023-04-03T11:40:25;9.50;99.90
11963;DHT22;62678;52.130;5.584;2023-04-03T11:42:54;9.40;99.90
11963;DHT22;62678;52.130;5.584;2023-04-03T11:45:29;9.50;99.90
11963;DHT22;62678;52.130;5.584;2023-04-03T11:48:29;9.60;99.90
11963;DHT22;62678;52.130;5.584;2023-04-03T11:50:47;9.60;99.90
11963;DHT22;62678;52.130;5.584;2023-04-03T11:53:30;9.80;99.90
11963;DHT22;62678;52.130;5.584;2023-04-03T11:56:02;10.00;99.90
11963;DHT22;62678;52.130;5.584;2023-04-03T11:58:31;9.90;99.90
11963;DHT22;62678;52.130;5.584;2023-04-03T12:01:05;9.80;99.90
11963;DHT22;62678;52.130;5.584;2023-04-03T12:07:02;10.10;99.90
11963;DHT22;62678;52.130;5.584;2023-04-03T12:12:33;10.10;99.90
11963;DHT22;62678;52.130;5.584;2023-04-03T12:15:38;10.30;99.90
11963;DHT22;62678;52.130;5.584;2023-04-03T12:18:41;10.50;99.90
11963;DHT22;62678;52.130;5.584;2023-04-03T12:21:09;10.30;99.90
11963;DHT22;62678;52.130;5.584;2023-04-03T12:23:54;10.10;99.90
11963;DHT22;62678;52.130;5.584;2023-04-03T12:26:25;10.10;99.90
11963;DHT22;62678;52.130;5.584;2023-04-03T12:28:54;10.20;99.90
11963;DHT22;62678;52.130;5.584;2023-04-03T12:31:25;10.30;99.90
11963;DHT22;62678;52.130;5.584;2023-04-03T12:34:12;10.30;99.90
11963;DHT22;62678;52.130;5.584;2023-04-03T12:36:48;10.20;99.90
11963;DHT22;62678;52.130;5.584;2023-04-03T12:39:35;10.10;99.90
11963;DHT22;62678;52.130;5.584;2023-04-03T12:42:18;9.70;99.90
11963;DHT22;62678;52.130;5.584;2023-04-03T12:44:55;9.90;99.90
11963;DHT22;62678;52.130;5.584;2023-04-03T12:47:29;10.10;99.90
11963;DHT22;62678;52.130;5.584;2023-04-03T12:50:00;10.10;99.90
11963;DHT22;62678;52.130;5.584;2023-04-03T12:52:33;10.10;99.90
11963;DHT22;62678;52.130;5.584;2023-04-03T12:55:03;10.20;99.90
11963;DHT22;62678;52.130;5.584;2023-04-03T12:57:35;10.20;99.90
11963;DHT22;62678;52.130;5.584;2023-04-03T13:00:22;10.30;99.90
11963;DHT22;62678;52.130;5.584;2023-04-03T13:02:49;10.20;99.90
11963;DHT22;62678;52.130;5.584;2023-04-03T13:05:19;10.20;99.90
11963;DHT22;62678;52.130;5.584;2023-04-03T13:07:49;10.40;99.90
11963;DHT22;62678;52.130;5.584;2023-04-03T13:10:19;10.30;99.90
11963;DHT22;62678;52.130;5.584;2023-04-03T13:12:49;10.50;99.90
11963;DHT22;62678;52.130;5.584;2023-04-03T13:15:24;10.70;99.90
11963;DHT22;62678;52.130;5.584;2023-04-03T13:17:52;10.80;99.90
11963;DHT22;62678;52.130;5.584;2023-04-03T13:20:24;10.60;99.90
11963;DHT22;62678;52.130;5.584;2023-04-03T13:22:56;10.30;99.90
11963;DHT22;62678;52.130;5.584;2023-04-03T13:25:25;10.30;99.90
11963;DHT22;62678;52.130;5.584;2023-04-03T13:27:54;10.60;99.90
11963;DHT22;62678;52.130;5.584;2023-04-03T13:30:25;10.50;99.90
11963;DHT22;62678;52.130;5.584;2023-04-03T13:32:53;10.50;99.90
11963;DHT22;62678;52.130;5.584;2023-04-03T13:35:31;10.40;99.90
11963;DHT22;62678;52.130;5.584;2023-04-03T13:38:01;10.70;99.90
11963;DHT22;62678;52.130;5.584;2023-04-03T13:40:28;10.80;99.90
11963;DHT22;62678;52.130;5.584;2023-04-03T13:43:03;10.90;99.90
11963;DHT22;62678;52.130;5.584;2023-04-03T13:45:32;10.70;99.90
11963;DHT22;62678;52.130;5.584;2023-04-03T13:48:16;10.60;99.90
11963;DHT22;62678;52.130;5.584;2023-04-03T13:50:54;10.60;99.90
11963;DHT22;62678;52.130;5.584;2023-04-03T13:53:21;10.50;99.90
11963;DHT22;62678;52.130;5.584;2023-04-03T13:55:56;10.70;99.90
11963;DHT22;62678;52.130;5.584;2023-04-03T13:58:24;10.90;99.90
11963;DHT22;62678;52.130;5.584;2023-04-03T14:00:54;11.00;99.90
11963;DHT22;62678;52.130;5.584;2023-04-03T14:03:25;11.20;99.90
11963;DHT22;62678;52.130;5.584;2023-04-03T14:05:53;11.10;99.90
11963;DHT22;62678;52.130;5.584;2023-04-03T14:08:21;11.20;99.90
11963;DHT22;62678;52.130;5.584;2023-04-03T14:10:49;11.40;99.90
11963;DHT22;62678;52.130;5.584;2023-04-03T14:13:19;11.40;99.90
11963;DHT22;62678;52.130;5.584;2023-04-03T14:15:47;11.50;99.90
11963;DHT22;62678;52.130;5.584;2023-04-03T14:18:19;11.40;99.90
11963;DHT22;62678;52.130;5.584;2023-04-03T14:20:46;11.50;99.90
11963;DHT22;62678;52.130;5.584;2023-04-03T14:23:15;11.50;99.90
11963;DHT22;62678;52.130;5.584;2023-04-03T14:25:42;11.40;99.90
11963;DHT22;62678;52.130;5.584;2023-04-03T14:28:16;11.40;99.90
11963;DHT22;62678;52.130;5.584;2023-04-03T14:30:44;11.30;99.90
11963;DHT22;62678;52.130;5.584;2023-04-03T14:33:15;11.00;99.90
11963;DHT22;62678;52.130;5.584;2023-04-03T14:35:42;11.10;99.90
11963;DHT22;62678;52.130;5.584;2023-04-03T14:38:23;11.20;99.90
11963;DHT22;62678;52.130;5.584;2023-04-03T14:40:51;11.20;99.90
11963;DHT22;62678;52.130;5.584;2023-04-03T14:43:18;11.30;99.90
11963;DHT22;62678;52.130;5.584;2023-04-03T14:45:46;11.20;99.90
11963;DHT22;62678;52.130;5.584;2023-04-03T14:48:17;11.20;99.90
11963;DHT22;62678;52.130;5.584;2023-04-03T14:50:46;11.40;99.90
11963;DHT22;62678;52.130;5.584;2023-04-03T14:53:14;11.50;99.90
11963;DHT22;62678;52.130;5.584;2023-04-03T14:55:45;11.50;99.90
11963;DHT22;62678;52.130;5.584;2023-04-03T14:58:13;11.70;99.90
11963;DHT22;62678;52.130;5.584;2023-04-03T15:00:41;11.50;99.90
11963;DHT22;62678;52.130;5.584;2023-04-03T15:03:13;11.80;99.90
11963;DHT22;62678;52.130;5.584;2023-04-03T15:05:42;11.70;99.90
11963;DHT22;62678;52.130;5.584;2023-04-03T15:08:17;11.60;99.90
11963;DHT22;62678;52.130;5.584;2023-04-03T15:10:47;11.90;99.90
11963;DHT22;62678;52.130;5.584;2023-04-03T15:13:14;11.70;99.90
11963;DHT22;62678;52.130;5.584;2023-04-03T15:15:41;12.20;99.90
11963;DHT22;62678;52.130;5.584;2023-04-03T15:18:15;13.00;99.90
11963;DHT22;62678;52.130;5.584;2023-04-03T15:20:42;13.30;99.90
11963;DHT22;62678;52.130;5.584;2023-04-03T15:23:11;13.60;99.90
11963;DHT22;62678;52.130;5.584;2023-04-03T15:25:38;13.60;99.90
11963;DHT22;62678;52.130;5.584;2023-04-03T15:28:09;14.10;99.90
11963;DHT22;62678;52.130;5.584;2023-04-03T15:30:40;14.10;99.90
11963;DHT22;62678;52.130;5.584;2023-04-03T15:33:08;14.10;99.90
11963;DHT22;62678;52.130;5.584;2023-04-03T15:35:35;14.30;99.90
11963;DHT22;62678;52.130;5.584;2023-04-03T15:38:02;14.50;99.90
11963;DHT22;62678;52.130;5.584;2023-04-03T15:40:29;15.00;99.90
11963;DHT22;62678;52.130;5.584;2023-04-03T15:42:56;15.20;99.90
11963;DHT22;62678;52.130;5.584;2023-04-03T15:45:24;15.10;99.90
11963;DHT22;62678;52.130;5.584;2023-04-03T15:47:51;15.50;99.90
11963;DHT22;62678;52.130;5.584;2023-04-03T15:50:18;15.40;99.90
11963;DHT22;62678;52.130;5.584;2023-04-03T15:52:47;15.30;99.90
11963;DHT22;62678;52.130;5.584;2023-04-03T15:55:19;15.00;99.90
11963;DHT22;62678;52.130;5.584;2023-04-03T15:57:46;14.80;99.90
11963;DHT22;62678;52.130;5.584;2023-04-03T16:00:14;15.20;99.90
11963;DHT22;62678;52.130;5.584;2023-04-03T16:02:44;15.80;99.90
11963;DHT22;62678;52.130;5.584;2023-04-03T16:05:12;15.80;99.90
11963;DHT22;62678;52.130;5.584;2023-04-03T16:07:41;16.10;99.90